createdAt,value
2023-03-18T00:01:32.226Z,99583.63
2023-03-18T00:03:58.943Z,99580.31
2023-03-18T00:06:30.420Z,99585.47
2023-03-18T00:09:00.030Z,99592.31
2023-03-18T00:11:30.736Z,99591.00
2023-03-18T00:14:00.386Z,99591.81
2023-03-18T00:16:30.057Z,99588.75
2023-03-18T00:18:59.744Z,99601.31
2023-03-18T00:21:34.291Z,99595.47
2023-03-18T00:24:01.173Z,99600.41
2023-03-18T00:26:31.106Z,99597.56
2023-03-18T00:29:00.249Z,99587.50
2023-03-18T00:31:29.914Z,99594.13
2023-03-18T00:34:05.391Z,99607.53
2023-03-18T00:36:32.333Z,99606.94
2023-03-18T00:39:03.633Z,99608.25
2023-03-18T00:41:36.487Z,99615.75
2023-03-18T00:44:03.274Z,99611.53
2023-03-18T00:46:30.030Z,99605.75
2023-03-18T00:49:05.551Z,99607.34
2023-03-18T00:51:34.154Z,99603.28
2023-03-18T00:54:03.268Z,99610.75
2023-03-18T00:56:40.086Z,99603.19
2023-03-18T00:59:08.002Z,99616.63
2023-03-18T01:01:35.433Z,99611.09
2023-03-18T01:04:06.236Z,99610.88
2023-03-18T01:06:34.501Z,99614.91
2023-03-18T01:09:01.583Z,99605.94
2023-03-18T01:11:40.076Z,99617.31
2023-03-18T01:14:06.869Z,99612.41
2023-03-18T01:16:33.581Z,99610.13
2023-03-18T01:19:00.485Z,99606.25
2023-03-18T01:21:27.445Z,99609.47
2023-03-18T01:23:57.819Z,99609.91
2023-03-18T01:26:26.314Z,99612.41
2023-03-18T01:28:59.613Z,99614.25
2023-03-18T01:31:30.748Z,99618.72
2023-03-18T01:34:10.561Z,99612.44
2023-03-18T01:36:46.359Z,99612.81
2023-03-18T01:39:13.577Z,99608.13
2023-03-18T01:41:42.729Z,99605.88
2023-03-18T01:44:23.122Z,99603.25
2023-03-18T01:46:55.062Z,99601.63
2023-03-18T01:49:29.053Z,99606.75
2023-03-18T01:52:08.273Z,99598.28
2023-03-18T01:54:39.116Z,99592.38
2023-03-18T01:57:07.573Z,99590.94
2023-03-18T01:59:38.450Z,99593.63
2023-03-18T02:02:11.085Z,99586.88
2023-03-18T02:04:53.834Z,99591.91
2023-03-18T02:07:38.452Z,99598.28
2023-03-18T02:10:13.528Z,99595.06
2023-03-18T02:12:44.082Z,99596.53
2023-03-18T02:15:16.748Z,99601.88
2023-03-18T02:17:53.822Z,99598.78
2023-03-18T02:21:05.661Z,99595.88
2023-03-18T02:23:51.022Z,99589.91
2023-03-18T02:26:34.163Z,99599.19
2023-03-18T02:29:04.805Z,99600.19
2023-03-18T02:31:41.672Z,99596.28
2023-03-18T02:34:09.281Z,99599.97
2023-03-18T02:36:37.691Z,99605.53
2023-03-18T02:39:08.342Z,99604.91
2023-03-18T02:41:35.897Z,99605.88
2023-03-18T02:44:03.500Z,99610.19
2023-03-18T02:46:46.984Z,99610.78
2023-03-18T02:49:28.164Z,99606.84
2023-03-18T02:52:05.144Z,99608.09
2023-03-18T02:54:32.804Z,99618.03
2023-03-18T02:57:00.499Z,99611.75
2023-03-18T02:59:27.258Z,99615.91
2023-03-18T03:01:54.260Z,99612.44
2023-03-18T03:04:24.066Z,99609.41
2023-03-18T03:06:51.381Z,99598.69
2023-03-18T03:09:23.629Z,99611.22
2023-03-18T03:11:52.953Z,99616.22
2023-03-18T03:14:22.683Z,99625.69
2023-03-18T03:16:52.877Z,99621.44
2023-03-18T03:19:30.073Z,99629.06
2023-03-18T03:21:57.160Z,99620.03
2023-03-18T03:24:25.742Z,99621.50
2023-03-18T03:26:55.157Z,99616.56
2023-03-18T03:29:21.807Z,99618.38
2023-03-18T03:31:49.507Z,99633.16
2023-03-18T03:34:16.209Z,99625.78
2023-03-18T03:36:43.147Z,99620.19
2023-03-18T03:39:12.621Z,99630.69
2023-03-18T03:41:39.408Z,99629.44
2023-03-18T03:44:06.298Z,99628.66
2023-03-18T03:46:34.073Z,99631.28
2023-03-18T03:49:00.807Z,99627.63
2023-03-18T03:51:30.278Z,99634.78
2023-03-18T03:53:59.485Z,99631.84
2023-03-18T03:56:33.854Z,99635.19
2023-03-18T03:59:00.573Z,99636.41
2023-03-18T04:01:48.729Z,99624.00
2023-03-18T04:04:15.586Z,99627.00
2023-03-18T04:06:43.021Z,99633.66
2023-03-18T04:09:09.759Z,99628.56
2023-03-18T04:11:36.827Z,99633.28
2023-03-18T04:14:06.936Z,99632.69
2023-03-18T04:16:34.150Z,99636.75
2023-03-18T04:19:01.063Z,99640.28
2023-03-18T04:21:46.174Z,99628.41
2023-03-18T04:24:21.723Z,99625.94
2023-03-18T04:26:48.973Z,99627.72
2023-03-18T04:29:16.005Z,99634.75
2023-03-18T04:31:42.850Z,99632.06
2023-03-18T04:34:09.796Z,99636.16
2023-03-18T04:36:38.718Z,99639.78
2023-03-18T04:39:05.541Z,99635.91
2023-03-18T04:41:32.479Z,99635.47
2023-03-18T04:44:05.278Z,99637.19
2023-03-18T04:46:40.420Z,99635.97
2023-03-18T04:49:08.754Z,99641.34
2023-03-18T04:51:35.824Z,99634.22
2023-03-18T04:54:02.898Z,99650.84
2023-03-18T04:56:31.437Z,99646.94
2023-03-18T04:59:01.473Z,99649.22
2023-03-18T05:01:31.608Z,99663.00
2023-03-18T05:03:58.550Z,99662.97
2023-03-18T05:06:33.621Z,99661.34
2023-03-18T05:09:13.350Z,99654.38
2023-03-18T05:11:41.754Z,99656.63
2023-03-18T05:14:31.858Z,99660.13
2023-03-18T05:16:59.832Z,99660.94
2023-03-18T05:19:28.333Z,99658.63
2023-03-18T05:22:16.543Z,99663.78
2023-03-18T05:24:46.143Z,99665.78
2023-03-18T05:27:14.783Z,99656.97
2023-03-18T05:29:45.451Z,99654.31
2023-03-18T05:32:22.237Z,99653.28
2023-03-18T05:34:55.238Z,99651.50
2023-03-18T05:37:24.513Z,99663.22
2023-03-18T05:39:59.286Z,99667.53
2023-03-18T05:42:27.073Z,99663.22
2023-03-18T05:44:57.968Z,99655.16
2023-03-18T05:47:25.458Z,99650.44
2023-03-18T05:50:01.748Z,99652.13
2023-03-18T05:52:29.192Z,99654.63
2023-03-18T05:55:01.177Z,99651.09
2023-03-18T05:57:32.784Z,99639.19
2023-03-18T06:00:03.112Z,99652.53
2023-03-18T06:02:42.339Z,99643.88
2023-03-18T06:05:10.639Z,99645.31
2023-03-18T06:07:37.390Z,99647.75
2023-03-18T06:10:04.553Z,99647.94
2023-03-18T06:12:31.580Z,99646.22
2023-03-18T06:15:00.707Z,99648.16
2023-03-18T06:17:27.672Z,99648.47
2023-03-18T06:19:54.715Z,99642.06
2023-03-18T06:22:22.421Z,99639.44
2023-03-18T06:24:49.841Z,99647.75
2023-03-18T06:27:18.887Z,99645.34
2023-03-18T06:29:51.889Z,99656.06
2023-03-18T06:32:21.159Z,99654.09
2023-03-18T06:34:51.460Z,99663.53
2023-03-18T06:37:21.793Z,99656.34
2023-03-18T06:39:52.542Z,99666.63
2023-03-18T06:42:22.505Z,99661.66
2023-03-18T06:45:04.168Z,99663.63
2023-03-18T06:47:47.098Z,99666.50
2023-03-18T06:50:13.921Z,99672.41
2023-03-18T06:52:40.768Z,99663.94
2023-03-18T06:55:16.037Z,99671.25
2023-03-18T06:57:45.734Z,99664.09
2023-03-18T07:00:16.363Z,99675.31
2023-03-18T07:02:43.562Z,99671.75
2023-03-18T07:05:12.984Z,99673.97
2023-03-18T07:07:42.028Z,99680.28
2023-03-18T07:10:11.734Z,99687.56
2023-03-18T07:12:40.308Z,99681.84
2023-03-18T07:15:07.864Z,99680.81
2023-03-18T07:17:35.043Z,99681.59
2023-03-18T07:20:01.762Z,99681.63
2023-03-18T07:22:29.240Z,99695.72
2023-03-18T07:24:56.084Z,99698.75
2023-03-18T07:27:27.520Z,99706.66
2023-03-18T07:29:54.821Z,99709.84
2023-03-18T07:32:22.180Z,99711.47
2023-03-18T07:35:01.467Z,99707.59
2023-03-18T07:37:28.799Z,99708.63
2023-03-18T07:39:56.248Z,99714.16
2023-03-18T07:42:31.800Z,99712.97
2023-03-18T07:44:58.501Z,99715.03
2023-03-18T07:47:25.217Z,99713.19
2023-03-18T07:50:07.529Z,99719.06
2023-03-18T07:52:34.268Z,99722.00
2023-03-18T07:55:01.038Z,99722.06
2023-03-18T07:57:30.544Z,99726.81
2023-03-18T07:59:57.168Z,99730.25
2023-03-18T08:02:23.967Z,99732.53
2023-03-18T08:04:54.267Z,99738.63
2023-03-18T08:07:24.597Z,99737.34
2023-03-18T08:09:51.411Z,99736.41
2023-03-18T08:12:45.268Z,99737.59
2023-03-18T08:15:29.896Z,99732.69
2023-03-18T08:18:03.065Z,99737.59
2023-03-18T08:20:29.762Z,99732.69
2023-03-18T08:22:57.137Z,99739.03
2023-03-18T08:25:54.918Z,99741.22
2023-03-18T08:28:18.821Z,99743.75
2023-03-18T08:30:46.899Z,99745.13
2023-03-18T08:33:13.845Z,99744.81
2023-03-18T08:35:47.797Z,99749.28
2023-03-18T08:38:14.556Z,99753.69
2023-03-18T08:40:46.475Z,99746.69
2023-03-18T08:43:22.296Z,99753.59
2023-03-18T08:45:53.954Z,99758.16
2023-03-18T08:48:21.548Z,99757.22
2023-03-18T08:50:50.678Z,99767.09
2023-03-18T08:53:17.836Z,99768.56
2023-03-18T08:55:44.604Z,99769.63
2023-03-18T08:58:11.444Z,99780.25
2023-03-18T09:00:44.126Z,99777.00
2023-03-18T09:03:13.836Z,99774.66
2023-03-18T09:05:40.652Z,99780.84
2023-03-18T09:08:13.600Z,99790.31
2023-03-18T09:10:41.502Z,99783.03
2023-03-18T09:13:08.296Z,99776.38
2023-03-18T09:15:39.412Z,99793.69
2023-03-18T09:18:13.682Z,99785.56
2023-03-18T09:20:43.498Z,99792.84
2023-03-18T09:23:15.702Z,99796.44
2023-03-18T09:25:44.913Z,99790.66
2023-03-18T09:28:14.556Z,99798.59
2023-03-18T09:30:41.717Z,99797.31
2023-03-18T09:33:17.811Z,99805.88
2023-03-18T09:35:44.873Z,99796.28
2023-03-18T09:38:15.043Z,99805.88
2023-03-18T09:41:07.146Z,99811.03
2023-03-18T09:43:47.561Z,99800.13
2023-03-18T09:46:20.207Z,99804.13
2023-03-18T09:49:07.753Z,99796.88
2023-03-18T09:52:05.300Z,99798.84
2023-03-18T09:54:41.020Z,99806.69
2023-03-18T09:57:25.213Z,99804.56
2023-03-18T09:59:55.619Z,99812.66
2023-03-18T10:02:55.060Z,99819.69
2023-03-18T10:05:27.052Z,99821.78
2023-03-18T10:08:15.887Z,99826.00
2023-03-18T10:10:49.170Z,99830.94
2023-03-18T10:13:33.531Z,99832.53
2023-03-18T10:16:02.338Z,99830.88
2023-03-18T10:18:37.115Z,99832.97
2023-03-18T10:21:07.174Z,99834.50
2023-03-18T10:23:52.596Z,99835.00
2023-03-18T10:26:44.536Z,99834.41
2023-03-18T10:29:41.359Z,99835.09
2023-03-18T10:32:50.006Z,99843.00
2023-03-18T10:35:48.190Z,99839.50
2023-03-18T10:38:23.681Z,99836.69
2023-03-18T10:40:53.677Z,99836.97
2023-03-18T10:43:24.788Z,99834.28
2023-03-18T10:46:03.921Z,99851.34
2023-03-18T10:48:34.937Z,99843.16
2023-03-18T10:51:18.589Z,99846.84
2023-03-18T10:54:07.327Z,99846.47
2023-03-18T10:56:35.866Z,99844.56
2023-03-18T10:59:21.752Z,99848.31
2023-03-18T11:01:52.557Z,99849.50
2023-03-18T11:04:58.430Z,99845.16
2023-03-18T11:07:32.332Z,99847.28
2023-03-18T11:10:18.300Z,99848.13
2023-03-18T11:12:44.925Z,99846.66
2023-03-18T11:15:12.929Z,99844.09
2023-03-18T11:17:48.958Z,99849.28
2023-03-18T11:20:48.105Z,99857.31
2023-03-18T11:23:35.993Z,99853.22
2023-03-18T11:26:03.148Z,99850.53
2023-03-18T11:28:30.145Z,99849.78
2023-03-18T11:31:00.443Z,99859.00
2023-03-18T11:33:37.260Z,99854.69
2023-03-18T11:36:13.298Z,99852.03
2023-03-18T11:38:40.230Z,99850.75
2023-03-18T11:41:08.732Z,99852.25
2023-03-18T11:43:41.265Z,99862.38
2023-03-18T11:46:11.121Z,99866.00
2023-03-18T11:48:43.673Z,99871.94
2023-03-18T11:51:27.283Z,99879.91
2023-03-18T11:54:38.297Z,99875.19
2023-03-18T11:57:22.953Z,99868.16
2023-03-18T12:00:17.543Z,99868.19
2023-03-18T12:03:05.505Z,99875.56
2023-03-18T12:05:58.511Z,99874.78
2023-03-18T12:08:59.704Z,99868.03
2023-03-18T12:12:02.024Z,99871.47
2023-03-18T12:14:35.355Z,99874.31
2023-03-18T12:17:13.333Z,99873.09
2023-03-18T12:20:08.578Z,99875.28
2023-03-18T12:22:41.147Z,99873.72
2023-03-18T12:25:32.222Z,99872.97
2023-03-18T12:28:16.659Z,99873.59
2023-03-18T12:30:53.218Z,99879.63
2023-03-18T12:33:32.469Z,99888.13
2023-03-18T12:36:07.281Z,99876.34
2023-03-18T12:38:51.686Z,99872.19
2023-03-18T12:41:30.971Z,99878.59
2023-03-18T12:44:11.937Z,99866.13
2023-03-18T12:46:43.291Z,99876.91
2023-03-18T12:49:22.473Z,99873.69
2023-03-18T12:52:00.231Z,99876.75
2023-03-18T12:54:30.719Z,99871.91
2023-03-18T12:57:02.053Z,99871.25
2023-03-18T12:59:36.579Z,99861.22
2023-03-18T13:02:22.897Z,99868.53
2023-03-18T13:05:01.715Z,99860.94
2023-03-18T13:07:36.588Z,99858.91
2023-03-18T13:10:15.826Z,99861.97
2023-03-18T13:12:43.633Z,99863.00
2023-03-18T13:15:34.469Z,99863.53
2023-03-18T13:18:14.789Z,99870.28
2023-03-18T13:20:45.340Z,99862.19
2023-03-18T13:23:44.330Z,99858.13
2023-03-18T13:26:10.845Z,99857.00
2023-03-18T13:28:37.647Z,99853.59
2023-03-18T13:31:38.225Z,99855.34
2023-03-18T13:34:21.412Z,99856.44
2023-03-18T13:37:09.420Z,99857.06
2023-03-18T13:40:13.934Z,99862.03
2023-03-18T13:42:41.283Z,99858.09
2023-03-18T13:45:47.531Z,99857.78
2023-03-18T13:48:21.659Z,99859.47
2023-03-18T13:50:51.165Z,99855.00
2023-03-18T13:53:31.677Z,99865.28
2023-03-18T13:55:58.357Z,99862.19
2023-03-18T13:58:29.893Z,99855.19
2023-03-18T14:00:58.155Z,99858.94
2023-03-18T14:03:43.171Z,99855.53
2023-03-18T14:06:39.690Z,99857.41
2023-03-18T14:09:32.653Z,99860.06
2023-03-18T14:12:17.024Z,99850.19
2023-03-18T14:14:53.082Z,99851.03
2023-03-18T14:17:44.278Z,99857.56
2023-03-18T14:20:17.786Z,99857.06
2023-03-18T14:23:26.987Z,99855.78
2023-03-18T14:26:03.568Z,99853.09
2023-03-18T14:28:39.348Z,99855.25
2023-03-18T14:31:21.226Z,99843.91
2023-03-18T14:33:53.637Z,99859.38
2023-03-18T14:36:32.165Z,99858.94
2023-03-18T14:39:03.547Z,99861.91
2023-03-18T14:41:37.187Z,99861.03
2023-03-18T14:44:21.303Z,99856.38
2023-03-18T14:46:58.230Z,99860.56
2023-03-18T14:49:35.465Z,99855.38
2023-03-18T14:52:05.813Z,99862.97
2023-03-18T14:54:38.771Z,99857.50
2023-03-18T14:57:05.590Z,99845.19
2023-03-18T14:59:32.334Z,99849.91
2023-03-18T15:01:59.122Z,99846.94
2023-03-18T15:04:28.062Z,99859.94
2023-03-18T15:06:56.926Z,99850.00
2023-03-18T15:09:27.279Z,99839.03
2023-03-18T15:11:54.862Z,99841.78
2023-03-18T15:14:30.838Z,99835.75
2023-03-18T15:17:04.050Z,99837.19
2023-03-18T15:19:41.148Z,99839.00
2023-03-18T15:22:09.571Z,99824.91
2023-03-18T15:24:36.641Z,99822.94
2023-03-18T15:27:13.490Z,99828.75
2023-03-18T15:29:53.757Z,99827.16
2023-03-18T15:32:27.615Z,99823.31
2023-03-18T15:35:06.015Z,99822.31
2023-03-18T15:37:43.886Z,99825.09
2023-03-18T15:40:34.022Z,99816.41
2023-03-18T15:43:12.400Z,99815.59
2023-03-18T15:45:47.046Z,99806.50
2023-03-18T15:48:26.829Z,99816.81
2023-03-18T15:51:06.121Z,99816.53
2023-03-18T15:53:48.410Z,99817.09
2023-03-18T15:56:19.831Z,99812.88
2023-03-18T15:59:07.053Z,99817.47
2023-03-18T16:01:35.294Z,99811.69
2023-03-18T16:04:04.898Z,99809.53
2023-03-18T16:06:35.008Z,99812.16
2023-03-18T16:09:15.807Z,99817.47
2023-03-18T16:11:44.430Z,99819.34
2023-03-18T16:14:19.119Z,99819.97
2023-03-18T16:16:46.588Z,99816.13
2023-03-18T16:19:30.366Z,99818.00
2023-03-18T16:22:01.112Z,99818.34
2023-03-18T16:24:30.838Z,99821.84
2023-03-18T16:26:57.940Z,99820.47
2023-03-18T16:29:28.914Z,99824.09
2023-03-18T16:31:55.913Z,99827.22
2023-03-18T16:34:22.757Z,99831.75
2023-03-18T16:36:51.441Z,99834.38
2023-03-18T16:39:20.318Z,99838.63
2023-03-18T16:41:47.589Z,99837.22
2023-03-18T16:44:25.653Z,99838.28
2023-03-18T16:46:54.696Z,99836.28
2023-03-18T16:49:23.967Z,99841.44
2023-03-18T16:51:53.945Z,99839.22
2023-03-18T16:54:22.731Z,99838.97
2023-03-18T16:56:52.396Z,99832.28
2023-03-18T16:59:24.932Z,99834.94
2023-03-18T17:01:51.956Z,99832.09
2023-03-18T17:04:25.921Z,99830.84
2023-03-18T17:06:53.226Z,99831.75
2023-03-18T17:09:20.582Z,99836.00
2023-03-18T17:11:49.042Z,99848.41
2023-03-18T17:14:32.506Z,99846.69
2023-03-18T17:17:01.940Z,99845.06
2023-03-18T17:19:31.172Z,99853.69
2023-03-18T17:21:57.882Z,99844.25
2023-03-18T17:24:24.995Z,99857.97
2023-03-18T17:26:52.704Z,99859.72
2023-03-18T17:29:28.066Z,99859.78
2023-03-18T17:31:55.059Z,99862.94
2023-03-18T17:34:22.845Z,99849.81
2023-03-18T17:36:49.705Z,99852.63
2023-03-18T17:39:16.493Z,99849.94
2023-03-18T17:41:45.689Z,99866.03
2023-03-18T17:44:32.602Z,99864.59
2023-03-18T17:46:59.365Z,99859.19
2023-03-18T17:49:27.669Z,99866.78
2023-03-18T17:52:03.738Z,99865.31
2023-03-18T17:54:31.742Z,99860.72
2023-03-18T17:56:58.445Z,99856.28
2023-03-18T17:59:32.365Z,99862.41
2023-03-18T18:01:59.096Z,99860.47
2023-03-18T18:04:26.200Z,99859.50
2023-03-18T18:06:53.562Z,99853.63
2023-03-18T18:09:21.528Z,99864.50
2023-03-18T18:11:48.990Z,99863.09
2023-03-18T18:14:20.163Z,99863.53
2023-03-18T18:16:48.180Z,99865.72
2023-03-18T18:19:20.675Z,99867.06
2023-03-18T18:21:49.030Z,99868.69
2023-03-18T18:24:28.529Z,99876.06
2023-03-18T18:26:55.650Z,99894.75
2023-03-18T18:29:24.485Z,99942.78
2023-03-18T18:31:52.355Z,99921.06
2023-03-18T18:34:22.293Z,99912.34
2023-03-18T18:36:49.615Z,99950.09
2023-03-18T18:39:16.588Z,99982.00
2023-03-18T18:41:44.144Z,100036.53
2023-03-18T18:44:11.963Z,100013.75
2023-03-18T18:46:41.092Z,100020.78
2023-03-18T18:49:22.714Z,100008.44
2023-03-18T18:51:54.772Z,99994.66
2023-03-18T18:54:24.849Z,99994.44
2023-03-18T18:56:54.812Z,99981.25
2023-03-18T18:59:26.857Z,99983.53
2023-03-18T19:01:55.697Z,99987.22
2023-03-18T19:04:54.586Z,99992.59
2023-03-18T19:07:52.199Z,99981.50
2023-03-18T19:10:19.014Z,99976.34
2023-03-18T19:12:46.313Z,99972.41
2023-03-18T19:15:15.453Z,99969.75
2023-03-18T19:17:51.455Z,99956.38
2023-03-18T19:20:27.156Z,99956.19
2023-03-18T19:22:57.664Z,99959.06
2023-03-18T19:25:25.953Z,99945.91
2023-03-18T19:27:54.023Z,99943.66
2023-03-18T19:30:28.199Z,99930.03
2023-03-18T19:32:54.846Z,99930.25
2023-03-18T19:35:21.539Z,99924.50
2023-03-18T19:37:56.017Z,99928.41
2023-03-18T19:40:42.628Z,99927.59
2023-03-18T19:46:19.117Z,99923.88
2023-03-18T19:48:53.210Z,99925.53
2023-03-18T19:51:19.893Z,99918.75
2023-03-18T19:53:47.380Z,99925.13
2023-03-18T19:56:25.307Z,99918.75
2023-03-18T20:01:37.931Z,99915.25
2023-03-18T20:04:07.261Z,99922.88
2023-03-18T20:06:40.691Z,99910.09
2023-03-18T20:09:07.482Z,99910.94
2023-03-18T20:11:37.477Z,99896.94
2023-03-18T20:14:24.864Z,99901.47
2023-03-18T20:17:00.779Z,99909.28
2023-03-18T20:19:27.639Z,99904.75
2023-03-18T20:21:55.316Z,99905.78
2023-03-18T20:24:29.488Z,99895.50
2023-03-18T20:26:56.174Z,99897.34
2023-03-18T20:29:25.381Z,99890.78
2023-03-18T20:32:01.368Z,99882.13
2023-03-18T20:34:28.231Z,99873.94
2023-03-18T20:36:54.997Z,99872.28
2023-03-18T20:39:29.265Z,99866.31
2023-03-18T20:41:56.099Z,99871.84
2023-03-18T20:44:22.765Z,99856.63
2023-03-18T20:46:49.528Z,99858.06
2023-03-18T20:49:16.183Z,99855.78
2023-03-18T20:51:46.554Z,99859.50
2023-03-18T20:54:30.728Z,99856.19
2023-03-18T20:56:57.742Z,99860.91
2023-03-18T20:59:24.387Z,99859.25
2023-03-18T21:01:51.438Z,99857.19
2023-03-18T21:04:18.414Z,99865.19
2023-03-18T21:06:48.676Z,99859.41
2023-03-18T21:09:15.856Z,99856.13
2023-03-18T21:11:42.768Z,99851.59
2023-03-18T21:14:21.855Z,99852.63
2023-03-18T21:16:48.976Z,99845.66
2023-03-18T21:19:16.206Z,99844.22
2023-03-18T21:21:51.657Z,99843.19
2023-03-18T21:24:24.119Z,99840.13
2023-03-18T21:27:03.795Z,99832.72
2023-03-18T21:29:31.777Z,99838.88
2023-03-18T21:32:07.427Z,99830.06
2023-03-18T21:34:34.216Z,99830.47
2023-03-18T21:37:00.890Z,99829.03
2023-03-18T21:39:37.884Z,99833.97
2023-03-18T21:42:04.652Z,99827.41
2023-03-18T21:44:31.361Z,99823.69
2023-03-18T21:46:58.039Z,99820.59
2023-03-18T21:49:24.691Z,99817.13
2023-03-18T21:51:54.106Z,99815.50
2023-03-18T21:54:21.828Z,99808.47
2023-03-18T21:56:48.415Z,99812.59
2023-03-18T21:59:15.372Z,99807.88
2023-03-18T22:01:42.102Z,99807.88
2023-03-18T22:04:14.375Z,99804.59
2023-03-18T22:06:41.443Z,99804.56
2023-03-18T22:09:13.669Z,99801.28
2023-03-18T22:11:46.567Z,99797.56
2023-03-18T22:14:13.710Z,99798.00
2023-03-18T22:16:43.565Z,99789.56
2023-03-18T22:19:16.436Z,99784.66
2023-03-18T22:21:43.120Z,99787.53
2023-03-18T22:24:15.659Z,99781.34
2023-03-18T22:26:47.914Z,99778.09
2023-03-18T22:29:14.626Z,99774.81
2023-03-18T22:31:44.196Z,99776.03
2023-03-18T22:34:23.674Z,99776.66
2023-03-18T22:36:50.569Z,99773.38
2023-03-18T22:39:17.226Z,99778.50
2023-03-18T22:41:49.886Z,99773.34
2023-03-18T22:44:21.664Z,99774.41
2023-03-18T22:46:48.282Z,99771.31
2023-03-18T22:49:40.710Z,99767.00
2023-03-18T22:52:13.608Z,99775.00
2023-03-18T22:54:46.374Z,99771.72
2023-03-18T22:57:18.478Z,99769.28
2023-03-18T22:59:45.285Z,99776.47
2023-03-18T23:02:35.396Z,99770.09
2023-03-18T23:05:09.994Z,99770.28
2023-03-18T23:07:36.687Z,99772.13
2023-03-18T23:10:04.805Z,99767.41
2023-03-18T23:12:34.658Z,99766.78
2023-03-18T23:15:06.303Z,99763.50
2023-03-18T23:17:35.500Z,99769.03
2023-03-18T23:20:06.505Z,99758.56
2023-03-18T23:22:34.455Z,99768.63
2023-03-18T23:25:02.528Z,99757.75
2023-03-18T23:27:35.615Z,99766.56
2023-03-18T23:30:06.898Z,99767.81
2023-03-18T23:32:35.377Z,99765.34
2023-03-18T23:35:09.794Z,99775.19
2023-03-18T23:37:36.532Z,99772.72
2023-03-18T23:40:08.580Z,99766.97
2023-03-18T23:42:38.370Z,99769.66
2023-03-18T23:45:05.884Z,99768.00
2023-03-18T23:47:32.789Z,99770.69
2023-03-18T23:50:25.201Z,99768.22
2023-03-18T23:52:54.077Z,99769.44
2023-03-18T23:55:34.139Z,99768.63
2023-03-18T23:58:04.940Z,99771.91
